Lady Carmen — WDI5615 — position and weather

sailwx.info

Track history (hours):
 
Tides and Currents Weather Stations Pressure Air Temp Water Temp Dewpoint Dewpoint Depression Visibility Wind Speed Wind Dir Waves Ship Positions

Lady Carmen

Owner: Lady Carmen LLC, plantation, FL. More information available from US FCC via Universal Licensing System and Coast Guard Vessel Documentation Center.

Last reported at 2018-Jan-01 11:56 UTC. Time now 2018-Feb-19 14:19 UTC.
Position N 18°01' W 063°22'.
Warning: this ship's position is 49 days out of date.

Length 30 m.

Type: Pleasure craft. MMSI: 367710410.

Date/timePositionNaut miles runAvg speedWind from/ knotsBaromVisibWave heightAir tempDewpointWater temp
2018-Jan-01 11:56N 18°01' W 063°22'816.4
2018-Jan-01 11:25N 17°59' W 063°13'816.5
2018-Jan-01 10:55N 17°57' W 063°05'8 0.3
2017-Dec-31 13:11N 17°56' W 062°57'415.4
2017-Dec-31 12:55N 17°58' W 063°01'714.2
2017-Dec-31 12:25N 18°01' W 063°07'512.2
2017-Dec-31 12:00N 18°05' W 063°10'6 0.4
2017-Dec-30 19:04N 18°12' W 063°09'213.6
2017-Dec-30 18:57N 18°11' W 063°10'4 7.2
2017-Dec-30 18:26N 18°08' W 063°07'3 0.6
2017-Dec-30 13:38N 18°06' W 063°06'213.1
2017-Dec-30 13:28N 18°05' W 063°08'4 7.2
2017-Dec-30 12:57N 18°02' W 063°06'1 1.0
2017-Dec-30 12:26N 18°02' W 063°06'0 0.2
2017-Dec-30 11:54N 18°02' W 063°05'0 0.0
2017-Dec-30 11:24N 18°02' W 063°05'0 0.0
2017-Dec-30 10:54N 18°02' W 063°05'0 0.0
2017-Dec-30 10:27N 18°02' W 063°05'0 0.0
2017-Dec-30 09:57N 18°02' W 063°05'0 0.0
2017-Dec-30 09:27N 18°02' W 063°05'0 0.0
2017-Dec-30 08:57N 18°02' W 063°05'0 0.0
2017-Dec-30 08:24N 18°02' W 063°05'0 0.0
2017-Dec-30 07:57N 18°02' W 063°05'0 0.0
2017-Dec-30 07:27N 18°02' W 063°05'0 0.0
2017-Dec-30 07:00N 18°02' W 063°05'0 0.0
2017-Dec-30 06:30N 18°02' W 063°05'0 0.0
2017-Dec-30 06:00N 18°02' W 063°05'0 0.0
2017-Dec-30 05:30N 18°02' W 063°05'0 0.0
2017-Dec-30 04:48N 18°02' W 063°05'0 0.0
2017-Dec-30 04:30N 18°02' W 063°05'0 0.0
2017-Dec-30 04:00N 18°02' W 063°05'0 0.0
2017-Dec-30 03:30N 18°02' W 063°05'0 0.0
2017-Dec-30 03:00N 18°02' W 063°05'0 0.0
2017-Dec-30 02:30N 18°02' W 063°05'0 0.0
2017-Dec-30 02:00N 18°02' W 063°05'0 0.0
2017-Dec-30 01:21N 18°02' W 063°05'0 0.0
2017-Dec-30 00:51N 18°02' W 063°05'0 0.0
2017-Dec-30 00:21N 18°02' W 063°05'0 0.0
2017-Dec-29 23:54N 18°02' W 063°05'0 0.0
2017-Dec-29 23:24N 18°02' W 063°05'0 0.0
2017-Dec-29 22:55N 18°02' W 063°05'0 0.0
2017-Dec-29 22:24N 18°02' W 063°05'0 0.0
2017-Dec-29 21:54N 18°02' W 063°05'0 0.0
2017-Dec-29 21:25N 18°02' W 063°05'0 0.0
2017-Dec-29 20:58N 18°02' W 063°05'0 0.0
2017-Dec-29 20:27N 18°02' W 063°05'0 0.0
2017-Dec-29 19:57N 18°02' W 063°05'0 0.0
2017-Dec-29 19:27N 18°02' W 063°05'0 0.0
2017-Dec-29 19:00N 18°02' W 063°05'0 0.0
2017-Dec-29 18:27N 18°02' W 063°05'0 0.0
2017-Dec-29 18:00N 18°02' W 063°05'0 0.0
2017-Dec-29 17:24N 18°02' W 063°05'0 0.0
2017-Dec-29 17:00N 18°02' W 063°05'0 0.0
2017-Dec-29 16:30N 18°02' W 063°05'0 0.0
2017-Dec-29 16:00N 18°02' W 063°05'0 0.0
2017-Dec-29 15:30N 18°02' W 063°05'0 0.0
2017-Dec-29 15:00N 18°02' W 063°05'0 0.0
2017-Dec-29 14:30N 18°02' W 063°05'0 0.0
2017-Dec-29 14:00N 18°02' W 063°05'0 0.0
2017-Dec-29 13:30N 18°02' W 063°05'0 0.0
2017-Dec-29 12:57N 18°02' W 063°05'0 0.0
2017-Dec-29 12:30N 18°02' W 063°05'0 0.0
2017-Dec-29 11:48N 18°02' W 063°05'0 0.0
2017-Dec-29 11:30N 18°02' W 063°05'0 0.0
2017-Dec-29 10:51N 18°02' W 063°05'0 0.0
2017-Dec-29 10:30N 18°02' W 063°05'0 0.0
2017-Dec-29 10:00N 18°02' W 063°05'0 0.0
2017-Dec-29 09:30N 18°02' W 063°05'0 0.0
2017-Dec-29 08:51N 18°02' W 063°05'0 0.0
2017-Dec-29 08:21N 18°02' W 063°05'0 0.0
2017-Dec-29 07:54N 18°02' W 063°05'0 0.0
2017-Dec-29 07:24N 18°02' W 063°05'0 0.0
2017-Dec-29 06:54N 18°02' W 063°05'0 0.0
2017-Dec-29 06:21N 18°02' W 063°05'0 0.0
2017-Dec-29 05:54N 18°02' W 063°05'0 0.0
2017-Dec-29 05:24N 18°02' W 063°05'0 0.0
2017-Dec-29 04:54N 18°02' W 063°05'0 0.0
2017-Dec-29 04:27N 18°02' W 063°05'0 0.0
2017-Dec-29 03:54N 18°02' W 063°05'0 0.0
2017-Dec-29 03:27N 18°02' W 063°05'0 0.0
2017-Dec-29 02:57N 18°02' W 063°05'0 0.0
2017-Dec-29 02:27N 18°02' W 063°05'0 0.0
2017-Dec-29 01:57N 18°02' W 063°05'0 0.0
2017-Dec-29 01:27N 18°02' W 063°05'0 0.0
2017-Dec-29 01:00N 18°02' W 063°05'0 0.0
2017-Dec-29 00:27N 18°02' W 063°05'0 0.0
2017-Dec-29 00:00N 18°02' W 063°05'0 0.0
2017-Dec-28 23:30N 18°02' W 063°05'0 0.0
2017-Dec-28 23:00N 18°02' W 063°05'0 0.0
2017-Dec-28 22:30N 18°02' W 063°05'0 0.0
2017-Dec-28 22:00N 18°02' W 063°05'0 0.0
2017-Dec-28 21:30N 18°02' W 063°05'0 0.0
2017-Dec-28 21:00N 18°02' W 063°05'0 0.0
2017-Dec-28 20:30N 18°02' W 063°05'0 0.0
2017-Dec-28 20:00N 18°02' W 063°05'0 0.0
2017-Dec-28 19:30N 18°02' W 063°05'0 0.0
2017-Dec-28 19:00N 18°02' W 063°05'0 0.0
2017-Dec-28 18:18N 18°02' W 063°05'0 0.0
2017-Dec-28 17:48N 18°02' W 063°05'0 0.0
2017-Dec-28 17:30N 18°02' W 063°05'0 0.0
2017-Dec-28 17:00N 18°02' W 063°05'0 0.0
2017-Dec-28 16:30N 18°02' W 063°05'0 0.0
2017-Dec-28 16:00N 18°02' W 063°05'0 0.0
2017-Dec-28 15:30N 18°02' W 063°05'0 0.0
2017-Dec-28 14:48N 18°02' W 063°05'0 0.0
2017-Dec-28 14:18N 18°02' W 063°05'0 0.0
2017-Dec-28 14:00N 18°02' W 063°05'0 0.0
2017-Dec-28 13:30N 18°02' W 063°05'0 0.0
2017-Dec-28 13:00N 18°02' W 063°05'0 0.0
2017-Dec-28 12:30N 18°02' W 063°05'0 0.0
2017-Dec-28 12:00N 18°02' W 063°05'0 0.0
2017-Dec-28 11:29N 18°02' W 063°05'0 0.0
2017-Dec-28 10:59N 18°02' W 063°05'0 0.0
2017-Dec-28 10:20N 18°02' W 063°05'0 0.0
2017-Dec-28 09:59N 18°02' W 063°05'0 0.0
2017-Dec-28 09:05N 18°02' W 063°05'0 0.0
2017-Dec-28 08:47N 18°02' W 063°05'0 0.0
2017-Dec-28 08:20N 18°02' W 063°05'0 0.0
2017-Dec-28 07:50N 18°02' W 063°05'0 0.0
2017-Dec-28 07:23N 18°02' W 063°05'0 0.0
2017-Dec-28 06:53N 18°02' W 063°05'0 0.0
2017-Dec-28 06:23N 18°02' W 063°05'0 0.0
2017-Dec-28 05:53N 18°02' W 063°05'0 0.0
2017-Dec-28 05:23N 18°02' W 063°05'0 0.0
2017-Dec-28 04:53N 18°02' W 063°05'0 0.0
2017-Dec-28 04:23N 18°02' W 063°05'0 0.0
2017-Dec-28 03:53N 18°02' W 063°05'0 0.0
2017-Dec-28 03:26N 18°02' W 063°05'0 0.0
2017-Dec-28 02:56N 18°02' W 063°05'0 0.0
2017-Dec-28 02:26N 18°02' W 063°05'0 0.0
2017-Dec-28 01:56N 18°02' W 063°05'0 0.0
2017-Dec-28 01:26N 18°02' W 063°05'0 0.0
2017-Dec-28 00:59N 18°02' W 063°05'0 0.0
2017-Dec-28 00:29N 18°02' W 063°05'0 0.0
2017-Dec-27 23:56N 18°02' W 063°05'0 0.0
2017-Dec-27 23:29N 18°02' W 063°05'0 0.0
2017-Dec-27 22:59N 18°02' W 063°05'0 0.0
2017-Dec-27 22:29N 18°02' W 063°05'0 0.0
2017-Dec-27 21:59N 18°02' W 063°05'0 0.0
2017-Dec-27 21:29N 18°02' W 063°05'  
2017-Dec-24 13:05N 17°56' W 062°56'112.7
2017-Dec-24 12:59N 17°56' W 062°57'611.8
2017-Dec-24 12:28N 17°59' W 063°03'4 8.1
2017-Dec-24 11:58N 18°02' W 063°06'0 0.0
2017-Dec-24 11:30N 18°02' W 063°06'0 0.0
2017-Dec-24 11:00N 18°02' W 063°06'0 0.0
2017-Dec-24 10:27N 18°02' W 063°06'0 0.0
2017-Dec-24 09:54N 18°02' W 063°06'0 0.1
2017-Dec-24 09:26N 18°02' W 063°06'0 0.0
2017-Dec-24 08:41N 18°02' W 063°06'0 0.1
2017-Dec-24 08:26N 18°02' W 063°06'0 0.0
2017-Dec-24 07:57N 18°02' W 063°06'0 0.0
2017-Dec-24 07:26N 18°02' W 063°06'0 0.0
2017-Dec-24 06:56N 18°02' W 063°06'0 0.0
2017-Dec-24 06:23N 18°02' W 063°06'0 0.0
2017-Dec-24 05:56N 18°02' W 063°06'0 0.0
2017-Dec-24 05:26N 18°02' W 063°06'0 0.0
2017-Dec-24 04:54N 18°02' W 063°06'0 0.0
2017-Dec-24 04:26N 18°02' W 063°06'0 0.0
2017-Dec-24 03:56N 18°02' W 063°06'0 0.0
2017-Dec-24 03:26N 18°02' W 063°06'0 0.0
2017-Dec-24 02:56N 18°02' W 063°06'0 0.0
2017-Dec-24 02:24N 18°02' W 063°06'0 0.0
2017-Dec-24 01:56N 18°02' W 063°06'0 0.0
2017-Dec-24 01:20N 18°02' W 063°06'0 0.0
2017-Dec-24 00:56N 18°02' W 063°06'0 0.0
2017-Dec-24 00:26N 18°02' W 063°06'0 0.0
2017-Dec-23 23:56N 18°02' W 063°06'0 0.0
2017-Dec-23 23:29N 18°02' W 063°06'0 0.0
2017-Dec-23 22:59N 18°02' W 063°06'0 0.0
2017-Dec-23 22:26N 18°02' W 063°06'0 0.0
2017-Dec-23 21:59N 18°02' W 063°06'0 0.4
2017-Dec-23 21:21N 18°02' W 063°07'410.4
2017-Dec-23 21:00N 18°04' W 063°10'713.5
2017-Dec-23 20:29N 18°10' W 063°07'0 0.0
2017-Dec-23 15:47N 18°10' W 063°07'411.2
2017-Dec-23 15:28N 18°09' W 063°10'2 0.1
2017-Dec-22 13:18N 18°08' W 063°11'514.5
2017-Dec-22 12:58N 18°03' W 063°10'4 6.1
2017-Dec-22 12:19N 18°02' W 063°06'0 0.4
2017-Dec-22 12:00N 18°02' W 063°05'  
Track history (hours):
 
Tides and Currents Weather Stations Pressure Air Temp Water Temp Dewpoint Dewpoint Depression Visibility Wind Speed Wind Dir Waves Ship Positions

Lady Carmen

Owner: Lady Carmen LLC, plantation, FL. More information available from US FCC via Universal Licensing System and Coast Guard Vessel Documentation Center.

Last reported at 2018-Jan-01 11:56 UTC. Time now 2018-Feb-19 14:19 UTC.
Position N 18°01' W 063°22'.
Warning: this ship's position is 49 days out of date.

Length 30 m.

Type: Pleasure craft. MMSI: 367710410.

Date/timePositionNaut miles runAvg speedWind from/ knotsBaromVisibWave heightAir tempDewpointWater temp
2018-Jan-01 11:56N 18°01' W 063°22'816.4
2018-Jan-01 11:25N 17°59' W 063°13'816.5
2018-Jan-01 10:55N 17°57' W 063°05'8 0.3
2017-Dec-31 13:11N 17°56' W 062°57'415.4
2017-Dec-31 12:55N 17°58' W 063°01'714.2
2017-Dec-31 12:25N 18°01' W 063°07'512.2
2017-Dec-31 12:00N 18°05' W 063°10'6 0.4
2017-Dec-30 19:04N 18°12' W 063°09'213.6
2017-Dec-30 18:57N 18°11' W 063°10'4 7.2
2017-Dec-30 18:26N 18°08' W 063°07'3 0.6
2017-Dec-30 13:38N 18°06' W 063°06'213.1
2017-Dec-30 13:28N 18°05' W 063°08'4 7.2
2017-Dec-30 12:57N 18°02' W 063°06'1 1.0
2017-Dec-30 12:26N 18°02' W 063°06'0 0.2
2017-Dec-30 11:54N 18°02' W 063°05'0 0.0
2017-Dec-30 11:24N 18°02' W 063°05'0 0.0
2017-Dec-30 10:54N 18°02' W 063°05'0 0.0
2017-Dec-30 10:27N 18°02' W 063°05'0 0.0
2017-Dec-30 09:57N 18°02' W 063°05'0 0.0
2017-Dec-30 09:27N 18°02' W 063°05'0 0.0
2017-Dec-30 08:57N 18°02' W 063°05'0 0.0
2017-Dec-30 08:24N 18°02' W 063°05'0 0.0
2017-Dec-30 07:57N 18°02' W 063°05'0 0.0
2017-Dec-30 07:27N 18°02' W 063°05'0 0.0
2017-Dec-30 07:00N 18°02' W 063°05'0 0.0
2017-Dec-30 06:30N 18°02' W 063°05'0 0.0
2017-Dec-30 06:00N 18°02' W 063°05'0 0.0
2017-Dec-30 05:30N 18°02' W 063°05'0 0.0
2017-Dec-30 04:48N 18°02' W 063°05'0 0.0
2017-Dec-30 04:30N 18°02' W 063°05'0 0.0
2017-Dec-30 04:00N 18°02' W 063°05'0 0.0
2017-Dec-30 03:30N 18°02' W 063°05'0 0.0
2017-Dec-30 03:00N 18°02' W 063°05'0 0.0
2017-Dec-30 02:30N 18°02' W 063°05'0 0.0
2017-Dec-30 02:00N 18°02' W 063°05'0 0.0
2017-Dec-30 01:21N 18°02' W 063°05'0 0.0
2017-Dec-30 00:51N 18°02' W 063°05'0 0.0
2017-Dec-30 00:21N 18°02' W 063°05'0 0.0
2017-Dec-29 23:54N 18°02' W 063°05'0 0.0
2017-Dec-29 23:24N 18°02' W 063°05'0 0.0
2017-Dec-29 22:55N 18°02' W 063°05'0 0.0
2017-Dec-29 22:24N 18°02' W 063°05'0 0.0
2017-Dec-29 21:54N 18°02' W 063°05'0 0.0
2017-Dec-29 21:25N 18°02' W 063°05'0 0.0
2017-Dec-29 20:58N 18°02' W 063°05'0 0.0
2017-Dec-29 20:27N 18°02' W 063°05'0 0.0
2017-Dec-29 19:57N 18°02' W 063°05'0 0.0
2017-Dec-29 19:27N 18°02' W 063°05'0 0.0
2017-Dec-29 19:00N 18°02' W 063°05'0 0.0
2017-Dec-29 18:27N 18°02' W 063°05'0 0.0
2017-Dec-29 18:00N 18°02' W 063°05'0 0.0
2017-Dec-29 17:24N 18°02' W 063°05'0 0.0
2017-Dec-29 17:00N 18°02' W 063°05'0 0.0
2017-Dec-29 16:30N 18°02' W 063°05'0 0.0
2017-Dec-29 16:00N 18°02' W 063°05'0 0.0
2017-Dec-29 15:30N 18°02' W 063°05'0 0.0
2017-Dec-29 15:00N 18°02' W 063°05'0 0.0
2017-Dec-29 14:30N 18°02' W 063°05'0 0.0
2017-Dec-29 14:00N 18°02' W 063°05'0 0.0
2017-Dec-29 13:30N 18°02' W 063°05'0 0.0
2017-Dec-29 12:57N 18°02' W 063°05'0 0.0
2017-Dec-29 12:30N 18°02' W 063°05'0 0.0
2017-Dec-29 11:48N 18°02' W 063°05'0 0.0
2017-Dec-29 11:30N 18°02' W 063°05'0 0.0
2017-Dec-29 10:51N 18°02' W 063°05'0 0.0
2017-Dec-29 10:30N 18°02' W 063°05'0 0.0
2017-Dec-29 10:00N 18°02' W 063°05'0 0.0
2017-Dec-29 09:30N 18°02' W 063°05'0 0.0
2017-Dec-29 08:51N 18°02' W 063°05'0 0.0
2017-Dec-29 08:21N 18°02' W 063°05'0 0.0
2017-Dec-29 07:54N 18°02' W 063°05'0 0.0
2017-Dec-29 07:24N 18°02' W 063°05'0 0.0
2017-Dec-29 06:54N 18°02' W 063°05'0 0.0
2017-Dec-29 06:21N 18°02' W 063°05'0 0.0
2017-Dec-29 05:54N 18°02' W 063°05'0 0.0
2017-Dec-29 05:24N 18°02' W 063°05'0 0.0
2017-Dec-29 04:54N 18°02' W 063°05'0 0.0
2017-Dec-29 04:27N 18°02' W 063°05'0 0.0
2017-Dec-29 03:54N 18°02' W 063°05'0 0.0
2017-Dec-29 03:27N 18°02' W 063°05'0 0.0
2017-Dec-29 02:57N 18°02' W 063°05'0 0.0
2017-Dec-29 02:27N 18°02' W 063°05'0 0.0
2017-Dec-29 01:57N 18°02' W 063°05'0 0.0
2017-Dec-29 01:27N 18°02' W 063°05'0 0.0
2017-Dec-29 01:00N 18°02' W 063°05'0 0.0
2017-Dec-29 00:27N 18°02' W 063°05'0 0.0
2017-Dec-29 00:00N 18°02' W 063°05'0 0.0
2017-Dec-28 23:30N 18°02' W 063°05'0 0.0
2017-Dec-28 23:00N 18°02' W 063°05'0 0.0
2017-Dec-28 22:30N 18°02' W 063°05'0 0.0
2017-Dec-28 22:00N 18°02' W 063°05'0 0.0
2017-Dec-28 21:30N 18°02' W 063°05'0 0.0
2017-Dec-28 21:00N 18°02' W 063°05'0 0.0
2017-Dec-28 20:30N 18°02' W 063°05'0 0.0
2017-Dec-28 20:00N 18°02' W 063°05'0 0.0
2017-Dec-28 19:30N 18°02' W 063°05'0 0.0
2017-Dec-28 19:00N 18°02' W 063°05'0 0.0
2017-Dec-28 18:18N 18°02' W 063°05'0 0.0
2017-Dec-28 17:48N 18°02' W 063°05'0 0.0
2017-Dec-28 17:30N 18°02' W 063°05'0 0.0
2017-Dec-28 17:00N 18°02' W 063°05'0 0.0
2017-Dec-28 16:30N 18°02' W 063°05'0 0.0
2017-Dec-28 16:00N 18°02' W 063°05'0 0.0
2017-Dec-28 15:30N 18°02' W 063°05'0 0.0
2017-Dec-28 14:48N 18°02' W 063°05'0 0.0
2017-Dec-28 14:18N 18°02' W 063°05'0 0.0
2017-Dec-28 14:00N 18°02' W 063°05'0 0.0
2017-Dec-28 13:30N 18°02' W 063°05'0 0.0
2017-Dec-28 13:00N 18°02' W 063°05'0 0.0
2017-Dec-28 12:30N 18°02' W 063°05'0 0.0
2017-Dec-28 12:00N 18°02' W 063°05'0 0.0
2017-Dec-28 11:29N 18°02' W 063°05'0 0.0
2017-Dec-28 10:59N 18°02' W 063°05'0 0.0
2017-Dec-28 10:20N 18°02' W 063°05'0 0.0
2017-Dec-28 09:59N 18°02' W 063°05'0 0.0
2017-Dec-28 09:05N 18°02' W 063°05'0 0.0
2017-Dec-28 08:47N 18°02' W 063°05'0 0.0
2017-Dec-28 08:20N 18°02' W 063°05'0 0.0
2017-Dec-28 07:50N 18°02' W 063°05'0 0.0
2017-Dec-28 07:23N 18°02' W 063°05'0 0.0
2017-Dec-28 06:53N 18°02' W 063°05'0 0.0
2017-Dec-28 06:23N 18°02' W 063°05'0 0.0
2017-Dec-28 05:53N 18°02' W 063°05'0 0.0
2017-Dec-28 05:23N 18°02' W 063°05'0 0.0
2017-Dec-28 04:53N 18°02' W 063°05'0 0.0
2017-Dec-28 04:23N 18°02' W 063°05'0 0.0
2017-Dec-28 03:53N 18°02' W 063°05'0 0.0
2017-Dec-28 03:26N 18°02' W 063°05'0 0.0
2017-Dec-28 02:56N 18°02' W 063°05'0 0.0
2017-Dec-28 02:26N 18°02' W 063°05'0 0.0
2017-Dec-28 01:56N 18°02' W 063°05'0 0.0
2017-Dec-28 01:26N 18°02' W 063°05'0 0.0
2017-Dec-28 00:59N 18°02' W 063°05'0 0.0
2017-Dec-28 00:29N 18°02' W 063°05'0 0.0
2017-Dec-27 23:56N 18°02' W 063°05'0 0.0
2017-Dec-27 23:29N 18°02' W 063°05'0 0.0
2017-Dec-27 22:59N 18°02' W 063°05'0 0.0
2017-Dec-27 22:29N 18°02' W 063°05'0 0.0
2017-Dec-27 21:59N 18°02' W 063°05'0 0.0
2017-Dec-27 21:29N 18°02' W 063°05'  
2017-Dec-24 13:05N 17°56' W 062°56'112.7
2017-Dec-24 12:59N 17°56' W 062°57'611.8
2017-Dec-24 12:28N 17°59' W 063°03'4 8.1
2017-Dec-24 11:58N 18°02' W 063°06'0 0.0
2017-Dec-24 11:30N 18°02' W 063°06'0 0.0
2017-Dec-24 11:00N 18°02' W 063°06'0 0.0
2017-Dec-24 10:27N 18°02' W 063°06'0 0.0
2017-Dec-24 09:54N 18°02' W 063°06'0 0.1
2017-Dec-24 09:26N 18°02' W 063°06'0 0.0
2017-Dec-24 08:41N 18°02' W 063°06'0 0.1
2017-Dec-24 08:26N 18°02' W 063°06'0 0.0
2017-Dec-24 07:57N 18°02' W 063°06'0 0.0
2017-Dec-24 07:26N 18°02' W 063°06'0 0.0
2017-Dec-24 06:56N 18°02' W 063°06'0 0.0
2017-Dec-24 06:23N 18°02' W 063°06'0 0.0
2017-Dec-24 05:56N 18°02' W 063°06'0 0.0
2017-Dec-24 05:26N 18°02' W 063°06'0 0.0
2017-Dec-24 04:54N 18°02' W 063°06'0 0.0
2017-Dec-24 04:26N 18°02' W 063°06'0 0.0
2017-Dec-24 03:56N 18°02' W 063°06'0 0.0
2017-Dec-24 03:26N 18°02' W 063°06'0 0.0
2017-Dec-24 02:56N 18°02' W 063°06'0 0.0
2017-Dec-24 02:24N 18°02' W 063°06'0 0.0
2017-Dec-24 01:56N 18°02' W 063°06'0 0.0
2017-Dec-24 01:20N 18°02' W 063°06'0 0.0
2017-Dec-24 00:56N 18°02' W 063°06'0 0.0
2017-Dec-24 00:26N 18°02' W 063°06'0 0.0
2017-Dec-23 23:56N 18°02' W 063°06'0 0.0
2017-Dec-23 23:29N 18°02' W 063°06'0 0.0
2017-Dec-23 22:59N 18°02' W 063°06'0 0.0
2017-Dec-23 22:26N 18°02' W 063°06'0 0.0
2017-Dec-23 21:59N 18°02' W 063°06'0 0.4
2017-Dec-23 21:21N 18°02' W 063°07'410.4
2017-Dec-23 21:00N 18°04' W 063°10'713.5
2017-Dec-23 20:29N 18°10' W 063°07'0 0.0
2017-Dec-23 15:47N 18°10' W 063°07'411.2
2017-Dec-23 15:28N 18°09' W 063°10'2 0.1
2017-Dec-22 13:18N 18°08' W 063°11'514.5
2017-Dec-22 12:58N 18°03' W 063°10'4 6.1
2017-Dec-22 12:19N 18°02' W 063°06'0 0.4
2017-Dec-22 12:00N 18°02' W 063°05'  

Dump ship's entire track history